Time,TemperatureF,DewpointF,PressureIn,WindDirection,WindDirectionDegrees,WindSpeedMPH,WindSpeedGustMPH,Humidity,HourlyPrecipIn,Conditions,Clouds,dailyrainin,SolarRadiationWatts/m^2,SoftwareType,DateUTC
2013-01-24 00:00:00,58.5,52.4,30.15,SSE,149,1.1,1.1,80,0.00,CLR,,0.00,0.0,WeatherDisplay:10.37,2013-01-24 08:00:00,
2013-01-24 00:05:00,58.3,52.5,30.15,SSE,149,1.1,0.0,81,0.00,CLR,,0.00,0.0,WeatherDisplay:10.37,2013-01-24 08:05:00,
2013-01-24 00:10:00,58.2,52.7,30.15,SSE,149,0.0,0.0,82,0.00,CLR,,0.00,0.0,WeatherDisplay:10.37,2013-01-24 08:10:00,
2013-01-24 00:15:00,58.0,52.5,30.14,SE,141,1.1,1.1,82,0.00,CLR,,0.00,0.0,WeatherDisplay:10.37,2013-01-24 08:15:00,
2013-01-24 00:20:00,57.8,52.3,30.14,East,88,1.1,1.1,82,0.00,CLR,,0.00,0.0,WeatherDisplay:10.37,2013-01-24 08:20:00,
2013-01-24 00:25:00,57.8,52.3,30.14,NNE,24,2.3,2.3,82,0.00,CLR,,0.00,0.0,WeatherDisplay:10.37,2013-01-24 08:25:00,
2013-01-24 00:31:00,57.8,52.7,30.13,NNE,27,3.5,3.5,83,0.00,CLR,,0.00,0.0,WeatherDisplay:10.37,2013-01-24 08:31:00,
2013-01-24 00:36:00,57.7,52.6,30.13,NNE,24,3.5,3.5,83,0.01,RA,,0.01,0.0,WeatherDisplay:10.37,2013-01-24 08:36:00,
2013-01-24 00:41:00,57.6,52.5,30.13,NE,34,3.5,3.5,83,0.01,RA,,0.01,0.0,WeatherDisplay:10.37,2013-01-24 08:41:00,
2013-01-24 00:46:00,57.5,52.4,30.13,NE,34,2.3,2.3,83,0.01,RA,,0.01,0.0,WeatherDisplay:10.37,2013-01-24 08:46:00,
2013-01-24 00:51:00,57.5,52.4,30.13,NE,34,2.3,2.3,83,0.01,CLR,,0.01,0.0,WeatherDisplay:10.37,2013-01-24 08:51:00,
2013-01-24 00:56:00,57.4,52.3,30.13,NE,35,2.3,2.3,83,0.01,CLR,,0.01,0.0,WeatherDisplay:10.37,2013-01-24 08:56:00,
2013-01-24 01:01:00,57.3,51.9,30.13,NE,35,1.1,1.1,82,0.01,CLR,,0.01,0.0,WeatherDisplay:10.37,2013-01-24 09:01:00,
2013-01-24 01:06:00,57.2,51.8,30.13,NE,38,1.1,1.1,82,0.01,CLR,,0.01,0.0,WeatherDisplay:10.37,2013-01-24 09:06:00,
2013-01-24 01:11:00,57.1,51.7,30.13,NE,37,2.3,2.3,82,0.01,CLR,,0.01,0.0,WeatherDisplay:10.37,2013-01-24 09:11:00,
2013-01-24 01:16:00,57.0,51.6,30.13,NE,36,2.3,2.3,82,0.01,CLR,,0.01,0.0,WeatherDisplay:10.37,2013-01-24 09:16:00,
2013-01-24 01:21:00,56.9,50.8,30.13,NNE,22,3.5,3.5,80,0.02,RA,,0.02,0.0,WeatherDisplay:10.37,2013-01-24 09:21:00,
2013-01-24 01:26:00,56.8,51.0,30.13,NE,49,4.6,4.6,81,0.02,RA,,0.02,0.0,WeatherDisplay:10.37,2013-01-24 09:26:00,
2013-01-24 01:31:00,56.7,50.9,30.13,NNE,15,5.8,5.8,81,0.02,RA,,0.02,0.0,WeatherDisplay:10.37,2013-01-24 09:31:00,
2013-01-24 01:36:00,56.6,51.5,30.13,NE,46,4.6,4.6,83,0.02,RA,,0.03,0.0,WeatherDisplay:10.37,2013-01-24 09:36:00,
2013-01-24 01:41:00,56.5,51.4,30.13,NE,48,2.3,2.3,83,0.03,RA,,0.04,0.0,WeatherDisplay:10.37,2013-01-24 09:41:00,
2013-01-24 01:46:00,56.3,51.5,30.13,NE,51,8.1,8.1,84,0.04,RA,,0.05,0.0,WeatherDisplay:10.37,2013-01-24 09:46:00,
2013-01-24 01:51:00,56.1,51.3,30.13,NE,46,5.8,5.8,84,0.05,RA,,0.06,0.0,WeatherDisplay:10.37,2013-01-24 09:51:00,
2013-01-24 01:56:00,56.0,50.9,30.13,ENE,76,2.3,2.3,83,0.05,RA,,0.07,0.0,WeatherDisplay:10.37,2013-01-24 09:56:00,
2013-01-24 02:01:00,55.8,51.0,30.14,ENE,73,3.5,3.5,84,0.07,RA,,0.08,0.0,WeatherDisplay:10.37,2013-01-24 10:01:00,
2013-01-24 02:06:00,55.7,50.9,30.13,ENE,72,2.3,2.3,84,0.08,RA,,0.09,0.0,WeatherDisplay:10.37,2013-01-24 10:06:00,
2013-01-24 02:11:00,55.5,51.1,30.13,ENE,74,3.5,3.5,85,0.09,RA,,0.10,0.0,WeatherDisplay:10.37,2013-01-24 10:11:00,
2013-01-24 02:16:00,55.2,50.4,30.13,East,81,5.8,5.8,84,0.10,RA,,0.11,0.0,WeatherDisplay:10.37,2013-01-24 10:16:00,
2013-01-24 02:21:00,55.0,50.6,30.13,ENE,67,4.6,4.6,85,0.10,RA,,0.12,0.0,WeatherDisplay:10.37,2013-01-24 10:21:00,
2013-01-24 02:26:00,54.8,50.4,30.12,NE,55,6.9,6.9,85,0.11,RA,,0.13,0.0,WeatherDisplay:10.37,2013-01-24 10:26:00,
2013-01-24 02:31:00,54.6,50.5,30.12,East,84,5.0,5.0,86,0.11,RA,,0.14,0.0,WeatherDisplay:10.37,2013-01-24 10:31:00,
2013-01-24 02:36:00,54.5,50.4,30.12,ENE,60,8.1,8.1,86,0.11,RA,,0.14,0.0,WeatherDisplay:10.37,2013-01-24 10:36:00,
2013-01-24 02:41:00,54.5,50.4,30.12,NE,55,8.1,8.1,86,0.11,RA,,0.15,0.0,WeatherDisplay:10.37,2013-01-24 10:41:00,
2013-01-24 02:46:00,54.5,50.4,30.11,NNE,24,11.5,11.5,86,0.10,RA,,0.15,0.0,WeatherDisplay:10.37,2013-01-24 10:46:00,
2013-01-24 02:51:00,54.6,50.5,30.11,NE,49,8.1,8.1,86,0.11,RA,,0.16,0.0,WeatherDisplay:10.37,2013-01-24 10:51:00,
2013-01-24 02:56:00,54.8,50.7,30.11,East,84,10.4,10.4,86,0.10,RA,,0.16,0.0,WeatherDisplay:10.37,2013-01-24 10:56:00,
2013-01-24 03:01:00,55.0,50.9,30.11,ENE,64,9.2,9.2,86,0.08,RA,,0.16,0.0,WeatherDisplay:10.37,2013-01-24 11:01:00,
2013-01-24 03:06:00,55.1,51.3,30.11,NNE,27,8.1,8.1,87,0.07,CLR,,0.16,0.0,WeatherDisplay:10.37,2013-01-24 11:06:00,
2013-01-24 03:11:00,55.1,51.3,30.11,NE,55,9.2,9.2,87,0.07,RA,,0.17,0.0,WeatherDisplay:10.37,2013-01-24 11:11:00,
2013-01-24 03:16:00,55.2,51.4,30.10,NNE,19,8.1,8.1,87,0.06,RA,,0.17,0.0,WeatherDisplay:10.37,2013-01-24 11:16:00,
2013-01-24 03:21:00,55.3,51.5,30.10,NE,41,12.7,12.7,87,0.06,RA,,0.18,0.0,WeatherDisplay:10.37,2013-01-24 11:21:00,
2013-01-24 03:26:00,55.3,51.5,30.09,NE,55,11.5,11.5,87,0.05,RA,,0.18,0.0,WeatherDisplay:10.37,2013-01-24 11:26:00,
2013-01-24 03:31:00,55.4,51.6,30.10,East,89,8.1,8.1,87,0.05,RA,,0.18,0.0,WeatherDisplay:10.37,2013-01-24 11:31:00,
2013-01-24 03:36:00,55.4,51.6,30.10,NNE,31,4.6,4.6,87,0.05,RA,,0.19,0.0,WeatherDisplay:10.37,2013-01-24 11:36:00,
2013-01-24 03:41:00,55.4,51.9,30.10,ENE,59,7.0,7.0,88,0.04,RA,,0.19,0.0,WeatherDisplay:10.37,2013-01-24 11:41:00,
2013-01-24 03:46:00,55.3,51.8,30.10,NE,46,10.4,10.4,88,0.04,RA,,0.19,0.0,WeatherDisplay:10.37,2013-01-24 11:46:00,
2013-01-24 03:51:00,55.4,51.9,30.10,ENE,71,10.4,10.4,88,0.04,RA,,0.20,0.0,WeatherDisplay:10.37,2013-01-24 11:51:00,
2013-01-24 03:56:00,55.4,51.9,30.10,NE,42,11.5,11.5,88,0.04,RA,,0.20,0.0,WeatherDisplay:10.37,2013-01-24 11:56:00,
2013-01-24 04:01:00,55.3,52.1,30.10,NNE,21,10.0,10.0,89,0.05,RA,,0.22,0.0,WeatherDisplay:10.37,2013-01-24 12:01:00,
2013-01-24 04:06:00,55.2,52.0,30.10,ENE,62,8.1,8.1,89,0.07,RA,,0.23,0.0,WeatherDisplay:10.37,2013-01-24 12:06:00,
2013-01-24 04:11:00,55.1,52.2,30.10,ENE,67,9.2,9.2,90,0.07,RA,,0.24,0.0,WeatherDisplay:10.37,2013-01-24 12:11:00,
2013-01-24 04:16:00,55.0,52.1,30.10,ENE,68,9.2,9.2,90,0.07,RA,,0.25,0.0,WeatherDisplay:10.37,2013-01-24 12:16:00,
2013-01-24 04:21:00,55.0,52.4,30.11,NE,49,8.1,8.1,91,0.07,RA,,0.26,0.0,WeatherDisplay:10.37,2013-01-24 12:21:00,
2013-01-24 04:26:00,54.9,52.3,30.10,ENE,71,9.2,9.2,91,0.08,RA,,0.26,0.0,WeatherDisplay:10.37,2013-01-24 12:26:00,
2013-01-24 04:31:00,54.9,52.3,30.10,ENE,58,9.2,9.2,91,0.10,RA,,0.28,0.0,WeatherDisplay:10.37,2013-01-24 12:31:00,
2013-01-24 04:36:00,54.8,52.2,30.10,ENE,61,8.0,8.0,91,0.10,RA,,0.29,0.0,WeatherDisplay:10.37,2013-01-24 12:36:00,
2013-01-24 04:41:00,54.8,52.5,30.10,ENE,65,9.2,9.2,92,0.10,RA,,0.29,0.0,WeatherDisplay:10.37,2013-01-24 12:41:00,
2013-01-24 04:46:00,54.8,52.5,30.11,ENE,74,10.4,10.4,92,0.11,RA,,0.30,0.0,WeatherDisplay:10.37,2013-01-24 12:46:00,
2013-01-24 04:51:00,54.8,52.5,30.10,NE,49,8.1,8.1,92,0.10,RA,,0.30,0.0,WeatherDisplay:10.37,2013-01-24 12:51:00,
2013-01-24 04:56:00,54.8,52.5,30.10,ENE,75,9.2,9.2,92,0.11,RA,,0.31,0.0,WeatherDisplay:10.37,2013-01-24 12:56:00,
2013-01-24 05:01:00,54.8,52.5,30.10,ENE,64,9.2,9.2,92,0.10,RA,,0.31,0.0,WeatherDisplay:10.37,2013-01-24 13:01:00,
2013-01-24 05:06:00,54.9,52.6,30.11,ENE,73,10.4,10.4,92,0.09,RA,,0.32,0.0,WeatherDisplay:10.37,2013-01-24 13:06:00,
2013-01-24 05:11:00,55.0,52.4,30.10,NNE,24,10.4,10.4,91,0.08,RA,,0.32,0.0,WeatherDisplay:10.37,2013-01-24 13:11:00,
2013-01-24 05:16:00,55.0,52.4,30.11,ENE,61,10.4,10.4,91,0.08,RA,,0.32,0.0,WeatherDisplay:10.37,2013-01-24 13:16:00,
2013-01-24 05:21:00,55.0,52.4,30.10,ESE,104,10.4,10.4,91,0.08,RA,,0.33,0.0,WeatherDisplay:10.37,2013-01-24 13:21:00,
2013-01-24 05:26:00,55.0,52.4,30.11,ENE,70,8.1,8.1,91,0.07,RA,,0.33,0.0,WeatherDisplay:10.37,2013-01-24 13:26:00,
2013-01-24 05:31:00,55.0,52.4,30.11,East,84,6.0,6.0,91,0.05,RA,,0.33,0.0,WeatherDisplay:10.37,2013-01-24 13:31:00,
2013-01-24 05:36:00,55.1,52.5,30.11,ENE,77,8.0,8.0,91,0.05,RA,,0.34,0.0,WeatherDisplay:10.37,2013-01-24 13:36:00,
2013-01-24 05:41:00,55.1,52.5,30.11,ENE,74,10.4,10.4,91,0.05,RA,,0.34,0.0,WeatherDisplay:10.37,2013-01-24 13:41:00,
2013-01-24 05:46:00,55.0,52.1,30.11,East,86,10.4,10.4,90,0.05,RA,,0.35,0.0,WeatherDisplay:10.37,2013-01-24 13:46:00,
2013-01-24 05:51:00,55.0,52.4,30.11,East,82,7.0,7.0,91,0.05,RA,,0.35,0.0,WeatherDisplay:10.37,2013-01-24 13:51:00,
2013-01-24 05:56:00,55.0,52.4,30.11,East,79,8.0,8.0,91,0.04,RA,,0.35,0.0,WeatherDisplay:10.37,2013-01-24 13:56:00,
2013-01-24 06:01:00,55.1,52.5,30.11,East,82,7.0,7.0,91,0.04,CLR,,0.35,0.0,WeatherDisplay:10.37,2013-01-24 14:01:00,
2013-01-24 06:06:00,55.2,52.6,30.12,ENE,65,10.4,10.4,91,0.03,CLR,,0.35,0.0,WeatherDisplay:10.37,2013-01-24 14:06:00,
2013-01-24 06:11:00,55.3,52.7,30.12,NE,53,12.7,12.7,91,0.04,RA,,0.36,0.0,WeatherDisplay:10.37,2013-01-24 14:11:00,
2013-01-24 06:16:00,55.3,52.7,30.12,East,94,9.2,9.2,91,0.04,RA,,0.36,0.0,WeatherDisplay:10.37,2013-01-24 14:16:00,
2013-01-24 06:21:00,55.3,53.0,30.12,ENE,65,11.5,11.5,92,0.03,RA,,0.36,0.0,WeatherDisplay:10.37,2013-01-24 14:21:00,
2013-01-24 06:26:00,55.3,53.0,30.12,East,85,9.2,9.2,92,0.03,CLR,,0.36,0.0,WeatherDisplay:10.37,2013-01-24 14:26:00,
2013-01-24 06:31:00,55.2,52.9,30.12,East,86,11.5,11.5,92,0.04,RA,,0.37,0.0,WeatherDisplay:10.37,2013-01-24 14:31:00,
2013-01-24 06:36:00,55.2,52.9,30.13,NE,52,11.5,11.5,92,0.03,RA,,0.38,0.0,WeatherDisplay:10.37,2013-01-24 14:36:00,
2013-01-24 06:41:00,55.2,53.2,30.13,ENE,69,11.5,11.5,93,0.04,RA,,0.38,0.0,WeatherDisplay:10.37,2013-01-24 14:41:00,
2013-01-24 06:46:00,55.2,53.2,30.13,ENE,71,10.4,10.4,93,0.03,RA,,0.38,0.0,WeatherDisplay:10.37,2013-01-24 14:46:00,
2013-01-24 06:51:00,55.3,53.3,30.13,ENE,60,12.7,12.7,93,0.03,RA,,0.38,0.0,WeatherDisplay:10.37,2013-01-24 14:51:00,
2013-01-24 06:56:00,55.3,53.3,30.14,East,87,11.5,11.5,93,0.03,CLR,,0.38,0.0,WeatherDisplay:10.37,2013-01-24 14:56:00,
2013-01-24 07:01:00,55.3,53.0,30.14,ENE,59,8.1,8.1,92,0.04,RA,,0.39,0.0,WeatherDisplay:10.37,2013-01-24 15:01:00,
2013-01-24 07:06:00,55.3,53.0,30.14,East,88,7.0,7.0,92,0.04,RA,,0.39,0.0,WeatherDisplay:10.37,2013-01-24 15:06:00,
2013-01-24 07:11:00,55.3,53.3,30.14,ENE,77,8.0,8.0,93,0.03,RA,,0.39,0.0,WeatherDisplay:10.37,2013-01-24 15:11:00,
2013-01-24 07:16:00,55.2,53.2,30.14,NE,49,4.6,4.6,93,0.03,CLR,,0.40,0.0,WeatherDisplay:10.37,2013-01-24 15:16:00,
2013-01-24 07:21:00,55.2,53.2,30.14,East,84,3.5,3.5,93,0.04,RA,,0.40,5.0,WeatherDisplay:10.37,2013-01-24 15:21:00,
2013-01-24 07:26:00,55.2,53.2,30.14,NE,56,7.0,7.0,93,0.04,RA,,0.40,5.0,WeatherDisplay:10.37,2013-01-24 15:26:00,
2013-01-24 07:31:00,55.2,52.9,30.15,East,84,3.5,3.5,92,0.04,RA,,0.41,5.0,WeatherDisplay:10.37,2013-01-24 15:31:00,
2013-01-24 07:36:00,55.3,53.0,30.15,East,79,1.1,0.0,92,0.04,RA,,0.41,5.0,WeatherDisplay:10.37,2013-01-24 15:36:00,
2013-01-24 07:41:00,55.2,53.2,30.15,NE,53,1.1,1.1,93,0.04,RA,,0.42,0.0,WeatherDisplay:10.37,2013-01-24 15:41:00,
2013-01-24 07:46:00,55.2,53.2,30.16,NE,53,3.5,3.5,93,0.05,RA,,0.43,0.0,WeatherDisplay:10.37,2013-01-24 15:46:00,
2013-01-24 07:51:00,55.2,53.2,30.16,NE,49,4.0,4.0,93,0.06,RA,,0.44,7.0,WeatherDisplay:10.37,2013-01-24 15:51:00,
2013-01-24 07:56:00,55.1,53.1,30.16,ENE,68,3.5,3.5,93,0.07,RA,,0.45,9.0,WeatherDisplay:10.37,2013-01-24 15:56:00,
2013-01-24 08:01:00,55.1,53.1,30.16,ENE,63,4.0,4.0,93,0.07,RA,,0.46,19.0,WeatherDisplay:10.37,2013-01-24 16:01:00,
2013-01-24 08:06:00,55.0,53.0,30.16,ENE,67,5.0,5.0,93,0.08,RA,,0.47,21.0,WeatherDisplay:10.37,2013-01-24 16:06:00,
2013-01-24 08:11:00,54.8,52.8,30.16,ENE,69,6.9,6.9,93,0.09,RA,,0.48,25.0,WeatherDisplay:10.37,2013-01-24 16:11:00,
2013-01-24 08:16:00,54.7,52.7,30.16,NE,44,5.0,5.0,93,0.10,RA,,0.49,23.0,WeatherDisplay:10.37,2013-01-24 16:16:00,
2013-01-24 08:21:00,54.7,52.7,30.16,ENE,57,5.8,5.8,93,0.10,RA,,0.50,25.0,WeatherDisplay:10.37,2013-01-24 16:21:00,
2013-01-24 08:26:00,54.7,53.0,30.17,NE,47,5.0,5.0,94,0.10,RA,,0.50,28.0,WeatherDisplay:10.37,2013-01-24 16:26:00,
2013-01-24 08:31:00,54.7,53.0,30.17,North,10,8.1,8.1,94,0.09,RA,,0.50,40.0,WeatherDisplay:10.37,2013-01-24 16:31:00,
2013-01-24 08:36:00,54.8,53.1,30.17,NE,50,9.2,9.2,94,0.10,RA,,0.51,44.0,WeatherDisplay:10.37,2013-01-24 16:36:00,
2013-01-24 08:41:00,54.8,53.1,30.17,NNE,24,8.0,8.0,94,0.09,RA,,0.51,32.0,WeatherDisplay:10.37,2013-01-24 16:41:00,
2013-01-24 08:46:00,54.9,53.2,30.17,ENE,61,5.8,5.8,94,0.09,RA,,0.52,30.0,WeatherDisplay:10.37,2013-01-24 16:46:00,
2013-01-24 08:51:00,55.0,53.0,30.18,NE,46,9.2,9.2,93,0.08,RA,,0.52,28.0,WeatherDisplay:10.37,2013-01-24 16:51:00,
2013-01-24 08:56:00,55.1,53.1,30.18,ENE,71,9.2,9.2,93,0.07,RA,,0.52,32.0,WeatherDisplay:10.37,2013-01-24 16:56:00,
2013-01-24 09:01:00,55.3,53.3,30.18,ENE,63,5.0,5.0,93,0.06,BKN,,0.52,44.0,WeatherDisplay:10.37,2013-01-24 17:01:00,
2013-01-24 09:06:00,55.4,53.1,30.18,ENE,68,10.0,10.0,92,0.06,RA,,0.53,53.0,WeatherDisplay:10.37,2013-01-24 17:06:00,
2013-01-24 09:11:00,55.6,53.3,30.18,ENE,74,7.0,7.0,92,0.05,RA,,0.53,60.0,WeatherDisplay:10.37,2013-01-24 17:11:00,
2013-01-24 09:16:00,55.7,53.4,30.18,NE,48,8.1,8.1,92,0.05,RA,,0.54,62.0,WeatherDisplay:10.37,2013-01-24 17:16:00,
2013-01-24 09:21:00,55.8,53.5,30.18,NE,46,5.8,5.8,92,0.04,RA,,0.54,62.0,WeatherDisplay:10.37,2013-01-24 17:21:00,
2013-01-24 09:26:00,55.8,53.5,30.18,ENE,60,3.5,3.5,92,0.04,RA,,0.54,56.0,WeatherDisplay:10.37,2013-01-24 17:26:00,
2013-01-24 09:31:00,56.0,53.7,30.19,East,90,6.9,6.9,92,0.05,RA,,0.55,84.0,WeatherDisplay:10.37,2013-01-24 17:31:00,
2013-01-24 09:36:00,56.2,53.9,30.20,ENE,68,7.0,7.0,92,0.04,RA,,0.55,123.0,WeatherDisplay:10.37,2013-01-24 17:36:00,
2013-01-24 09:42:00,56.5,53.9,30.20,SSE,148,7.0,7.0,91,0.04,RA,,0.55,100.0,WeatherDisplay:10.37,2013-01-24 17:42:00,
2013-01-24 09:47:00,56.8,54.2,30.21,ENE,74,8.0,8.0,91,0.03,BKN,,0.55,111.0,WeatherDisplay:10.37,2013-01-24 17:47:00,
2013-01-24 09:52:00,56.9,54.0,30.21,SE,138,5.0,5.0,90,0.03,BKN,,0.55,98.0,WeatherDisplay:10.37,2013-01-24 17:52:00,
2013-01-24 09:57:00,57.1,54.2,30.22,SE,144,11.5,11.5,90,0.03,BKN,,0.55,67.0,WeatherDisplay:10.37,2013-01-24 17:57:00,
2013-01-24 10:02:00,57.3,53.8,30.21,NE,51,11.5,11.5,88,0.03,BKN,,0.55,111.0,WeatherDisplay:10.37,2013-01-24 18:02:00,
2013-01-24 10:07:00,57.5,53.7,30.21,East,91,8.1,8.1,87,0.02,BKN,,0.55,169.0,WeatherDisplay:10.37,2013-01-24 18:07:00,
2013-01-24 10:12:00,57.7,53.9,30.21,ENE,74,4.6,4.6,87,0.01,BKN,,0.55,134.0,WeatherDisplay:10.37,2013-01-24 18:12:00,
2013-01-24 10:17:00,57.8,53.6,30.21,East,81,9.2,9.2,86,0.01,BKN,,0.55,155.0,WeatherDisplay:10.37,2013-01-24 18:17:00,
2013-01-24 10:22:00,57.9,53.7,30.21,East,94,8.1,8.1,86,0.01,BKN,,0.55,206.0,WeatherDisplay:10.37,2013-01-24 18:22:00,
2013-01-24 10:27:00,58.2,54.3,30.21,ENE,68,4.6,4.6,87,0.01,SCT,,0.55,281.0,WeatherDisplay:10.37,2013-01-24 18:27:00,
2013-01-24 10:32:00,58.6,54.7,30.20,East,80,5.0,5.0,87,0.00,SCT,,0.55,279.0,WeatherDisplay:10.37,2013-01-24 18:32:00,
2013-01-24 10:37:00,59.0,55.1,30.20,ENE,65,8.0,8.0,87,0.00,SCT,,0.55,281.0,WeatherDisplay:10.37,2013-01-24 18:37:00,
2013-01-24 10:42:00,59.5,55.3,30.20,NE,50,6.0,6.0,86,0.00,BKN,,0.55,227.0,WeatherDisplay:10.37,2013-01-24 18:42:00,
2013-01-24 10:47:00,59.8,55.6,30.20,NE,56,8.1,8.1,86,0.00,BKN,,0.55,223.0,WeatherDisplay:10.37,2013-01-24 18:47:00,
2013-01-24 10:52:00,60.2,55.7,30.20,East,85,9.0,9.0,85,0.00,BKN,,0.55,276.0,WeatherDisplay:10.37,2013-01-24 18:52:00,
2013-01-24 10:57:00,60.4,55.2,30.20,East,85,8.1,8.1,83,0.00,BKN,,0.55,230.0,WeatherDisplay:10.37,2013-01-24 18:57:00,
2013-01-24 11:02:00,60.6,55.1,30.20,ENE,74,9.2,9.2,82,0.00,BKN,,0.55,241.0,WeatherDisplay:10.37,2013-01-24 19:02:00,
2013-01-24 11:07:00,61.0,55.5,30.19,ENE,72,8.1,8.1,82,0.00,BKN,,0.55,258.0,WeatherDisplay:10.37,2013-01-24 19:07:00,
2013-01-24 11:12:00,61.3,55.1,30.19,NE,43,9.2,9.2,80,0.00,BKN,,0.55,264.0,WeatherDisplay:10.37,2013-01-24 19:12:00,
2013-01-24 11:17:00,61.6,55.4,30.19,ENE,75,8.1,8.1,80,0.00,BKN,,0.55,241.0,WeatherDisplay:10.37,2013-01-24 19:17:00,
2013-01-24 11:22:00,61.9,55.0,30.19,ENE,65,10.4,10.4,78,0.00,BKN,,0.55,221.0,WeatherDisplay:10.37,2013-01-24 19:22:00,
2013-01-24 11:27:00,61.9,55.0,30.18,ENE,65,10.4,10.4,78,0.00,BKN,,0.55,227.0,WeatherDisplay:10.37,2013-01-24 19:27:00,
2013-01-24 11:32:00,62.0,55.1,30.18,ENE,63,10.4,10.4,78,0.00,BKN,,0.55,211.0,WeatherDisplay:10.37,2013-01-24 19:32:00,
2013-01-24 11:37:00,61.9,55.0,30.18,NE,35,11.5,11.5,78,0.00,BKN,,0.55,206.0,WeatherDisplay:10.37,2013-01-24 19:37:00,
2013-01-24 11:42:00,61.9,55.0,30.18,NE,46,11.5,11.5,78,0.00,BKN,,0.55,223.0,WeatherDisplay:10.37,2013-01-24 19:42:00,
2013-01-24 11:47:00,62.0,55.4,30.18,ENE,72,10.4,10.4,79,0.00,BKN,,0.55,232.0,WeatherDisplay:10.37,2013-01-24 19:47:00,
2013-01-24 11:52:00,62.1,55.2,30.17,NE,53,11.0,11.0,78,0.00,BKN,,0.55,274.0,WeatherDisplay:10.37,2013-01-24 19:52:00,
2013-01-24 11:57:00,62.2,55.3,30.17,ENE,69,10.4,10.4,78,0.00,SCT,,0.55,304.0,WeatherDisplay:10.37,2013-01-24 19:57:00,
2013-01-24 12:02:00,62.5,55.9,30.17,NE,55,6.9,6.9,79,0.00,SCT,,0.55,388.0,WeatherDisplay:10.37,2013-01-24 20:02:00,
2013-01-24 12:07:00,62.9,55.6,30.16,NE,47,11.5,11.5,77,0.00,FEW,,0.55,452.0,WeatherDisplay:10.37,2013-01-24 20:07:00,
2013-01-24 12:12:00,63.2,55.5,30.16,ENE,64,9.2,9.2,76,0.00,CLR,,0.55,619.0,WeatherDisplay:10.37,2013-01-24 20:12:00,
2013-01-24 12:17:00,63.5,55.4,30.16,NE,34,12.0,12.0,75,0.00,SCT,,0.55,285.0,WeatherDisplay:10.37,2013-01-24 20:17:00,
2013-01-24 12:22:00,63.5,55.1,30.16,ENE,65,11.5,11.5,74,0.00,SCT,,0.55,360.0,WeatherDisplay:10.37,2013-01-24 20:22:00,
2013-01-24 12:27:00,63.4,55.0,30.16,NE,56,13.0,13.0,74,0.00,BKN,,0.55,272.0,WeatherDisplay:10.37,2013-01-24 20:27:00,
2013-01-24 12:32:00,63.5,55.1,30.15,NNE,32,10.4,10.4,74,0.00,SCT,,0.55,339.0,WeatherDisplay:10.37,2013-01-24 20:32:00,
2013-01-24 12:37:00,63.6,55.2,30.15,NE,50,8.1,8.1,74,0.00,BKN,,0.55,243.0,WeatherDisplay:10.37,2013-01-24 20:37:00,
2013-01-24 12:42:00,63.8,55.0,30.14,East,86,11.0,11.0,73,0.00,SCT,,0.55,290.0,WeatherDisplay:10.37,2013-01-24 20:42:00,
2013-01-24 12:47:00,64.0,54.8,30.14,ENE,76,10.4,10.4,72,0.00,BKN,,0.55,188.0,WeatherDisplay:10.37,2013-01-24 20:47:00,
2013-01-24 12:52:00,63.9,54.7,30.14,East,84,9.2,9.2,72,0.00,BKN,,0.55,237.0,WeatherDisplay:10.37,2013-01-24 20:52:00,
2013-01-24 12:57:00,64.0,54.4,30.14,East,79,10.4,10.4,71,0.00,BKN,,0.55,239.0,WeatherDisplay:10.37,2013-01-24 20:57:00,
2013-01-24 13:02:00,64.1,54.9,30.14,East,80,10.4,10.4,72,0.00,BKN,,0.55,186.0,WeatherDisplay:10.37,2013-01-24 21:02:00,
2013-01-24 13:07:00,64.1,54.1,30.14,East,79,11.5,11.5,70,0.00,BKN,,0.55,267.0,WeatherDisplay:10.37,2013-01-24 21:07:00,
2013-01-24 13:12:00,64.1,54.9,30.14,ENE,63,10.0,10.0,72,0.00,SCT,,0.55,285.0,WeatherDisplay:10.37,2013-01-24 21:12:00,
2013-01-24 13:17:00,64.3,54.7,30.14,ENE,66,9.2,9.2,71,0.00,SCT,,0.55,269.0,WeatherDisplay:10.37,2013-01-24 21:17:00,
2013-01-24 13:22:00,64.5,54.9,30.14,ENE,73,6.9,6.9,71,0.00,BKN,,0.55,276.0,WeatherDisplay:10.37,2013-01-24 21:22:00,
2013-01-24 13:27:00,64.7,55.1,30.14,East,88,6.0,6.0,71,0.00,SCT,,0.55,265.0,WeatherDisplay:10.37,2013-01-24 21:27:00,
2013-01-24 13:32:00,64.8,55.2,30.14,ENE,74,3.5,3.5,71,0.00,BKN,,0.55,260.0,WeatherDisplay:10.37,2013-01-24 21:32:00,
2013-01-24 13:37:00,64.8,54.8,30.14,ENE,63,3.5,3.5,70,0.00,BKN,,0.55,225.0,WeatherDisplay:10.37,2013-01-24 21:37:00,
2013-01-24 13:42:00,64.8,54.8,30.14,NNE,26,5.0,5.0,70,0.00,BKN,,0.55,141.0,WeatherDisplay:10.37,2013-01-24 21:42:00,
2013-01-24 13:47:00,64.8,54.8,30.13,NE,51,6.9,6.9,70,0.00,BKN,,0.55,144.0,WeatherDisplay:10.37,2013-01-24 21:47:00,
2013-01-24 13:52:00,64.7,55.1,30.13,ENE,61,5.0,5.0,71,0.00,BKN,,0.55,149.0,WeatherDisplay:10.37,2013-01-24 21:52:00,
2013-01-24 13:57:00,64.8,54.8,30.13,East,80,4.6,4.6,70,0.00,BKN,,0.55,171.0,WeatherDisplay:10.37,2013-01-24 21:57:00,
2013-01-24 14:02:00,64.9,55.3,30.13,ESE,102,3.5,3.5,71,0.00,BKN,,0.55,153.0,WeatherDisplay:10.37,2013-01-24 22:02:00,
2013-01-24 14:07:00,64.9,55.3,30.13,East,84,3.5,3.5,71,0.00,BKN,,0.55,197.0,WeatherDisplay:10.37,2013-01-24 22:07:00,
2013-01-24 14:12:00,65.0,55.0,30.12,ENE,67,1.1,1.1,70,0.00,BKN,,0.55,200.0,WeatherDisplay:10.37,2013-01-24 22:12:00,
2013-01-24 14:17:00,65.2,55.2,30.12,NE,38,4.0,4.0,70,0.00,BKN,,0.55,199.0,WeatherDisplay:10.37,2013-01-24 22:17:00,
2013-01-24 14:22:00,65.4,55.4,30.12,SE,135,4.0,4.0,70,0.00,BKN,,0.55,185.0,WeatherDisplay:10.37,2013-01-24 22:22:00,
2013-01-24 14:27:00,65.4,54.6,30.12,SE,137,4.6,4.6,68,0.00,BKN,,0.55,200.0,WeatherDisplay:10.37,2013-01-24 22:27:00,
2013-01-24 14:32:00,65.3,54.5,30.12,SE,140,8.0,8.0,68,0.00,BKN,,0.55,179.0,WeatherDisplay:10.37,2013-01-24 22:32:00,
2013-01-24 14:37:00,65.2,54.8,30.12,SE,140,2.3,2.3,69,0.00,SCT,,0.55,216.0,WeatherDisplay:10.37,2013-01-24 22:37:00,
2013-01-24 14:42:00,65.4,55.0,30.12,East,101,3.0,3.0,69,0.00,SCT,,0.55,229.0,WeatherDisplay:10.37,2013-01-24 22:42:00,
2013-01-24 14:47:00,65.4,55.0,30.12,SE,130,8.1,8.1,69,0.00,SCT,,0.55,213.0,WeatherDisplay:10.37,2013-01-24 22:47:00,
2013-01-24 14:52:00,65.4,55.0,30.12,SSE,168,5.8,5.8,69,0.00,SCT,,0.55,172.0,WeatherDisplay:10.37,2013-01-24 22:52:00,
2013-01-24 14:57:00,65.3,54.9,30.12,SSE,150,4.0,4.0,69,0.00,SCT,,0.55,155.0,WeatherDisplay:10.37,2013-01-24 22:57:00,
2013-01-24 15:02:00,65.3,54.9,30.11,SSE,150,2.3,2.3,69,0.00,SCT,,0.55,188.0,WeatherDisplay:10.37,2013-01-24 23:02:00,
2013-01-24 15:07:00,65.5,55.1,30.11,SE,127,4.0,4.0,69,0.00,SCT,,0.55,179.0,WeatherDisplay:10.37,2013-01-24 23:07:00,
2013-01-24 15:12:00,65.6,54.8,30.11,SE,128,3.5,3.5,68,0.00,BKN,,0.55,134.0,WeatherDisplay:10.37,2013-01-24 23:12:00,
2013-01-24 15:17:00,65.7,54.4,30.11,SE,125,3.5,3.5,67,0.00,SCT,,0.55,190.0,WeatherDisplay:10.37,2013-01-24 23:17:00,
2013-01-24 15:22:00,65.8,54.9,30.11,SE,126,3.5,3.5,68,0.00,CLR,,0.55,450.0,WeatherDisplay:10.37,2013-01-24 23:22:00,
2013-01-24 15:27:00,66.1,54.8,30.11,SSE,150,4.0,4.0,67,0.00,CLR,,0.55,315.0,WeatherDisplay:10.37,2013-01-24 23:27:00,
2013-01-24 15:32:00,66.0,54.7,30.11,SE,140,3.0,3.0,67,0.00,FEW,,0.55,179.0,WeatherDisplay:10.37,2013-01-24 23:32:00,
2013-01-24 15:37:00,66.1,54.8,30.11,SSE,148,3.5,3.5,67,0.00,CLR,,0.55,176.0,WeatherDisplay:10.37,2013-01-24 23:37:00,
2013-01-24 15:42:00,66.2,54.9,30.11,SSW,205,4.6,4.6,67,0.00,FEW,,0.55,171.0,WeatherDisplay:10.37,2013-01-24 23:42:00,
2013-01-24 15:47:00,66.2,54.9,30.12,SSE,168,3.5,3.5,67,0.00,FEW,,0.55,163.0,WeatherDisplay:10.37,2013-01-24 23:47:00,
2013-01-24 15:52:00,66.3,54.6,30.11,South,176,3.5,3.5,66,0.00,FEW,,0.55,149.0,WeatherDisplay:10.37,2013-01-24 23:52:00,
2013-01-24 15:57:00,66.4,55.1,30.11,South,174,3.0,3.0,67,0.00,SCT,,0.55,118.0,WeatherDisplay:10.37,2013-01-24 23:57:00,
2013-01-24 16:02:00,66.4,54.7,30.11,South,175,4.0,4.0,66,0.00,CLR,,0.55,139.0,WeatherDisplay:10.37,2013-01-25 00:02:00,
2013-01-24 16:07:00,66.3,55.0,30.11,SSE,153,2.3,2.3,67,0.00,CLR,,0.55,223.0,WeatherDisplay:10.37,2013-01-25 00:07:00,
2013-01-24 16:12:00,66.6,54.9,30.11,South,181,4.0,4.0,66,0.00,CLR,,0.55,186.0,WeatherDisplay:10.37,2013-01-25 00:12:00,
2013-01-24 16:17:00,66.8,55.1,30.10,SSW,197,2.3,0.0,66,0.00,CLR,,0.55,86.0,WeatherDisplay:10.37,2013-01-25 00:17:00,
2013-01-24 16:22:00,67.1,54.9,30.11,SSW,197,1.1,1.1,65,0.00,SCT,,0.55,60.0,WeatherDisplay:10.37,2013-01-25 00:22:00,
2013-01-24 16:27:00,67.1,54.9,30.11,SSW,197,1.1,1.1,65,0.00,BKN,,0.55,30.0,WeatherDisplay:10.37,2013-01-25 00:27:00,
2013-01-24 16:32:00,66.9,54.7,30.12,SSW,196,2.3,2.3,65,0.00,BKN,,0.55,33.0,WeatherDisplay:10.37,2013-01-25 00:32:00,
2013-01-24 16:37:00,66.7,55.0,30.12,SSE,163,1.1,1.1,66,0.00,BKN,,0.55,26.0,WeatherDisplay:10.37,2013-01-25 00:37:00,
2013-01-24 16:42:00,66.6,54.9,30.12,SSE,163,0.0,0.0,66,0.00,BKN,,0.55,19.0,WeatherDisplay:10.37,2013-01-25 00:42:00,
2013-01-24 16:47:00,66.4,54.7,30.12,SSE,163,0.0,0.0,66,0.00,BKN,,0.55,14.0,WeatherDisplay:10.37,2013-01-25 00:47:00,
2013-01-24 16:52:00,66.3,54.6,30.13,SSE,163,0.0,0.0,66,0.00,BKN,,0.55,11.0,WeatherDisplay:10.37,2013-01-25 00:52:00,
2013-01-24 16:57:00,66.2,54.9,30.13,SSE,163,0.0,0.0,67,0.00,BKN,,0.55,12.0,WeatherDisplay:10.37,2013-01-25 00:57:00,
2013-01-24 17:02:00,66.0,55.1,30.12,SSE,163,0.0,0.0,68,0.00,SCT,,0.55,12.0,WeatherDisplay:10.37,2013-01-25 01:02:00,
2013-01-24 17:07:00,65.7,54.8,30.12,SSE,163,0.0,0.0,68,0.00,CLR,,0.55,7.0,WeatherDisplay:10.37,2013-01-25 01:07:00,
2013-01-24 17:12:00,65.3,55.3,30.12,SSE,163,0.0,0.0,70,0.00,CLR,,0.55,0.0,WeatherDisplay:10.37,2013-01-25 01:12:00,
2013-01-24 17:17:00,65.1,55.1,30.12,SSE,163,0.0,0.0,70,0.00,CLR,,0.55,0.0,WeatherDisplay:10.37,2013-01-25 01:17:00,
2013-01-24 17:22:00,64.9,55.3,30.12,SSE,163,0.0,0.0,71,0.00,CLR,,0.55,0.0,WeatherDisplay:10.37,2013-01-25 01:22:00,
2013-01-24 17:27:00,64.8,55.2,30.12,SSE,163,0.0,0.0,71,0.00,CLR,,0.55,0.0,WeatherDisplay:10.37,2013-01-25 01:27:00,
2013-01-24 17:32:00,64.7,55.5,30.12,SSE,163,0.0,0.0,72,0.00,CLR,,0.55,0.0,WeatherDisplay:10.37,2013-01-25 01:32:00,
2013-01-24 17:37:00,64.6,55.4,30.12,SSE,163,0.0,0.0,72,0.00,CLR,,0.55,0.0,WeatherDisplay:10.37,2013-01-25 01:37:00,
2013-01-24 17:42:00,64.5,55.3,30.13,SSE,163,0.0,0.0,72,0.00,CLR,,0.55,0.0,WeatherDisplay:10.37,2013-01-25 01:42:00,
2013-01-24 17:47:00,64.4,55.6,30.13,SSE,163,0.0,0.0,73,0.00,CLR,,0.55,0.0,WeatherDisplay:10.37,2013-01-25 01:47:00,
2013-01-24 17:52:00,64.4,55.6,30.13,SSE,163,0.0,0.0,73,0.00,CLR,,0.55,0.0,WeatherDisplay:10.37,2013-01-25 01:52:00,
2013-01-24 17:57:00,64.3,55.1,30.12,SSE,163,0.0,0.0,72,0.00,CLR,,0.55,0.0,WeatherDisplay:10.37,2013-01-25 01:57:00,
2013-01-24 18:02:00,64.2,55.0,30.12,SSE,163,1.1,1.1,72,0.00,CLR,,0.55,0.0,WeatherDisplay:10.37,2013-01-25 02:02:00,
2013-01-24 18:07:00,64.2,55.0,30.11,SSE,163,0.0,0.0,72,0.00,CLR,,0.55,0.0,WeatherDisplay:10.37,2013-01-25 02:07:00,
2013-01-24 18:12:00,64.1,54.9,30.11,SSE,163,1.0,0.0,72,0.00,CLR,,0.55,0.0,WeatherDisplay:10.37,2013-01-25 02:12:00,
2013-01-24 18:17:00,64.0,55.2,30.11,SW,236,3.5,3.5,73,0.00,CLR,,0.55,0.0,WeatherDisplay:10.37,2013-01-25 02:17:00,
2013-01-24 18:22:00,63.9,55.1,30.11,WSW,238,2.0,2.0,73,0.00,CLR,,0.55,0.0,WeatherDisplay:10.37,2013-01-25 02:22:00,
2013-01-24 18:27:00,63.8,55.0,30.12,WSW,254,3.5,3.5,73,0.00,CLR,,0.55,0.0,WeatherDisplay:10.37,2013-01-25 02:27:00,
2013-01-24 18:32:00,63.7,54.9,30.12,WSW,254,3.0,3.0,73,0.00,CLR,,0.55,0.0,WeatherDisplay:10.37,2013-01-25 02:32:00,
2013-01-24 18:37:00,63.6,55.2,30.12,WSW,254,0.0,0.0,74,0.00,CLR,,0.55,0.0,WeatherDisplay:10.37,2013-01-25 02:37:00,
2013-01-24 18:42:00,63.3,54.9,30.11,WSW,254,2.3,2.3,74,0.00,CLR,,0.55,0.0,WeatherDisplay:10.37,2013-01-25 02:42:00,
2013-01-24 18:47:00,63.1,54.7,30.11,WSW,254,1.1,1.1,74,0.00,CLR,,0.55,0.0,WeatherDisplay:10.37,2013-01-25 02:47:00,
2013-01-24 18:52:00,63.0,54.9,30.12,WSW,254,1.0,1.0,75,0.00,CLR,,0.55,0.0,WeatherDisplay:10.37,2013-01-25 02:52:00,
2013-01-24 18:57:00,62.9,54.9,30.11,WSW,254,0.0,0.0,75,0.00,CLR,,0.55,0.0,WeatherDisplay:10.37,2013-01-25 02:57:00,
2013-01-24 19:02:00,62.7,54.7,30.11,WSW,254,0.0,0.0,75,0.00,CLR,,0.55,0.0,WeatherDisplay:10.37,2013-01-25 03:02:00,
2013-01-24 19:07:00,62.5,54.8,30.11,WSW,254,1.1,1.1,76,0.00,CLR,,0.55,0.0,WeatherDisplay:10.37,2013-01-25 03:07:00,
2013-01-24 19:12:00,62.2,54.9,30.12,WSW,254,0.0,0.0,77,0.00,CLR,,0.55,0.0,WeatherDisplay:10.37,2013-01-25 03:12:00,
2013-01-24 19:17:00,62.0,54.7,30.12,WSW,254,0.0,0.0,77,0.00,CLR,,0.55,0.0,WeatherDisplay:10.37,2013-01-25 03:17:00,
2013-01-24 19:22:00,61.9,54.6,30.12,WSW,254,0.0,0.0,77,0.00,CLR,,0.55,0.0,WeatherDisplay:10.37,2013-01-25 03:22:00,
2013-01-24 19:27:00,61.7,54.8,30.12,WSW,254,0.0,0.0,78,0.00,CLR,,0.55,0.0,WeatherDisplay:10.37,2013-01-25 03:27:00,
2013-01-24 19:32:00,61.6,54.7,30.13,WSW,254,0.0,0.0,78,0.00,CLR,,0.55,0.0,WeatherDisplay:10.37,2013-01-25 03:32:00,
2013-01-24 19:37:00,61.6,54.7,30.13,WSW,254,0.0,0.0,78,0.00,CLR,,0.55,0.0,WeatherDisplay:10.37,2013-01-25 03:37:00,
2013-01-24 19:42:00,61.4,54.8,30.12,WSW,254,0.0,0.0,79,0.00,CLR,,0.55,0.0,WeatherDisplay:10.37,2013-01-25 03:42:00,
2013-01-24 19:47:00,61.3,54.7,30.12,WSW,254,0.0,0.0,79,0.00,CLR,,0.55,0.0,WeatherDisplay:10.37,2013-01-25 03:47:00,
2013-01-24 19:52:00,61.3,54.7,30.12,WSW,254,0.0,0.0,79,0.00,CLR,,0.55,0.0,WeatherDisplay:10.37,2013-01-25 03:52:00,
2013-01-24 19:57:00,61.2,54.6,30.12,WSW,254,0.0,0.0,79,0.00,CLR,,0.55,0.0,WeatherDisplay:10.37,2013-01-25 03:57:00,
2013-01-24 20:02:00,61.2,54.6,30.12,WSW,254,0.0,0.0,79,0.00,CLR,,0.55,0.0,WeatherDisplay:10.37,2013-01-25 04:02:00,
2013-01-24 20:07:00,61.1,54.9,30.12,WSW,254,0.0,0.0,80,0.00,CLR,,0.55,0.0,WeatherDisplay:10.37,2013-01-25 04:07:00,
2013-01-24 20:12:00,60.9,54.7,30.12,WSW,254,1.1,1.1,80,0.00,CLR,,0.55,0.0,WeatherDisplay:10.37,2013-01-25 04:12:00,
2013-01-24 20:17:00,60.7,54.5,30.11,North,5,3.5,3.5,80,0.00,CLR,,0.55,0.0,WeatherDisplay:10.37,2013-01-25 04:17:00,
2013-01-24 20:22:00,60.8,54.9,30.11,North,355,1.1,1.1,81,0.00,CLR,,0.55,0.0,WeatherDisplay:10.37,2013-01-25 04:22:00,
2013-01-24 20:27:00,60.9,54.7,30.11,North,360,1.1,1.1,80,0.00,CLR,,0.55,0.0,WeatherDisplay:10.37,2013-01-25 04:27:00,
2013-01-24 20:32:00,61.1,54.9,30.12,North,5,2.0,2.0,80,0.00,CLR,,0.55,0.0,WeatherDisplay:10.37,2013-01-25 04:32:00,
2013-01-24 20:37:00,61.2,55.0,30.11,North,10,2.3,2.3,80,0.00,CLR,,0.55,0.0,WeatherDisplay:10.37,2013-01-25 04:37:00,
2013-01-24 20:42:00,61.2,55.0,30.12,North,11,1.0,0.0,80,0.00,CLR,,0.55,0.0,WeatherDisplay:10.37,2013-01-25 04:42:00,
2013-01-24 20:47:00,61.1,54.9,30.12,North,11,0.0,0.0,80,0.00,CLR,,0.55,0.0,WeatherDisplay:10.37,2013-01-25 04:47:00,
2013-01-24 20:52:00,61.1,54.9,30.12,North,11,0.0,0.0,80,0.00,CLR,,0.55,0.0,WeatherDisplay:10.37,2013-01-25 04:52:00,
2013-01-24 20:57:00,61.1,54.9,30.12,North,11,0.0,0.0,80,0.00,CLR,,0.55,0.0,WeatherDisplay:10.37,2013-01-25 04:57:00,
2013-01-24 21:01:00,61.1,54.9,30.12,North,11,0.0,0.0,80,0.00,CLR,,0.55,0.0,WeatherDisplay:10.37,2013-01-25 05:01:00,
2013-01-24 21:02:00,61.1,54.9,30.12,North,11,0.0,0.0,80,0.00,CLR,,0.55,0.0,WeatherDisplay:10.37,2013-01-25 05:02:00,
2013-01-24 21:03:00,61.1,54.9,30.12,North,11,0.0,0.0,80,0.00,CLR,,0.55,0.0,WeatherDisplay:10.37,2013-01-25 05:03:00,
2013-01-24 21:08:00,61.0,55.1,30.12,North,11,0.0,0.0,81,0.00,CLR,,0.55,0.0,WeatherDisplay:10.37,2013-01-25 05:08:00,
2013-01-24 21:13:00,61.1,55.2,30.12,North,11,0.0,0.0,81,0.00,CLR,,0.55,0.0,WeatherDisplay:10.37,2013-01-25 05:13:00,
2013-01-24 21:18:00,61.1,55.2,30.12,North,11,0.0,0.0,81,0.00,CLR,,0.55,0.0,WeatherDisplay:10.37,2013-01-25 05:18:00,
2013-01-24 21:23:00,61.0,55.1,30.12,North,11,0.0,0.0,81,0.00,CLR,,0.55,0.0,WeatherDisplay:10.37,2013-01-25 05:23:00,
2013-01-24 21:28:00,60.9,55.0,30.12,North,11,0.0,0.0,81,0.00,CLR,,0.55,0.0,WeatherDisplay:10.37,2013-01-25 05:28:00,
2013-01-24 21:33:00,60.8,54.9,30.12,North,11,0.0,0.0,81,0.00,CLR,,0.55,0.0,WeatherDisplay:10.37,2013-01-25 05:33:00,
2013-01-24 21:38:00,60.8,54.9,30.12,North,11,0.0,0.0,81,0.00,CLR,,0.55,0.0,WeatherDisplay:10.37,2013-01-25 05:38:00,
2013-01-24 21:43:00,60.7,55.2,30.12,North,10,1.1,1.1,82,0.00,CLR,,0.55,0.0,WeatherDisplay:10.37,2013-01-25 05:43:00,
2013-01-24 21:48:00,60.7,55.2,30.12,NNW,327,3.5,3.5,82,0.00,CLR,,0.55,0.0,WeatherDisplay:10.37,2013-01-25 05:48:00,
2013-01-24 21:53:00,60.9,55.4,30.12,NW,306,2.3,2.3,82,0.00,CLR,,0.55,0.0,WeatherDisplay:10.37,2013-01-25 05:53:00,
2013-01-24 21:58:00,60.9,55.0,30.12,NW,306,2.3,2.3,81,0.00,CLR,,0.55,0.0,WeatherDisplay:10.37,2013-01-25 05:58:00,
2013-01-24 22:03:00,60.9,55.0,30.13,NW,306,2.3,2.3,81,0.00,CLR,,0.55,0.0,WeatherDisplay:10.37,2013-01-25 06:03:00,
2013-01-24 22:08:00,61.0,55.1,30.13,NW,306,2.3,2.3,81,0.00,CLR,,0.55,0.0,WeatherDisplay:10.37,2013-01-25 06:08:00,
2013-01-24 22:13:00,61.0,55.1,30.13,NW,306,2.3,2.3,81,0.00,CLR,,0.55,0.0,WeatherDisplay:10.37,2013-01-25 06:13:00,
2013-01-24 22:18:00,61.0,55.1,30.13,NW,306,3.5,3.5,81,0.00,CLR,,0.55,0.0,WeatherDisplay:10.37,2013-01-25 06:18:00,
2013-01-24 22:23:00,61.1,55.2,30.13,NW,306,1.1,0.0,81,0.00,CLR,,0.55,0.0,WeatherDisplay:10.37,2013-01-25 06:23:00,
2013-01-24 22:28:00,61.0,55.5,30.13,NW,306,1.1,0.0,82,0.00,CLR,,0.55,0.0,WeatherDisplay:10.37,2013-01-25 06:28:00,
2013-01-24 22:33:00,60.9,55.4,30.14,NW,306,2.3,2.3,82,0.00,CLR,,0.55,0.0,WeatherDisplay:10.37,2013-01-25 06:33:00,
2013-01-24 22:38:00,60.9,55.4,30.14,NW,306,1.1,0.0,82,0.00,CLR,,0.55,0.0,WeatherDisplay:10.37,2013-01-25 06:38:00,
2013-01-24 22:43:00,61.0,55.5,30.14,NW,306,2.3,2.3,82,0.00,CLR,,0.55,0.0,WeatherDisplay:10.37,2013-01-25 06:43:00,
2013-01-24 22:48:00,60.9,55.7,30.14,NNW,345,1.1,1.1,83,0.01,RA,,0.56,0.0,WeatherDisplay:10.37,2013-01-25 06:48:00,
2013-01-24 22:53:00,60.7,56.2,30.14,NNW,345,1.1,1.1,85,0.01,RA,,0.56,0.0,WeatherDisplay:10.37,2013-01-25 06:53:00,
2013-01-24 22:58:00,60.4,56.2,30.14,NNW,345,2.3,0.0,86,0.02,RA,,0.58,0.0,WeatherDisplay:10.37,2013-01-25 06:58:00,
2013-01-24 23:03:00,60.2,56.0,30.14,NNW,336,1.1,1.1,86,0.03,RA,,0.58,0.0,WeatherDisplay:10.37,2013-01-25 07:03:00,
2013-01-24 23:08:00,60.1,56.2,30.14,NNW,331,2.3,2.3,87,0.04,RA,,0.59,0.0,WeatherDisplay:10.37,2013-01-25 07:08:00,
2013-01-24 23:13:00,60.0,56.4,30.14,NNW,342,3.5,3.5,88,0.04,RA,,0.59,0.0,WeatherDisplay:10.37,2013-01-25 07:13:00,
2013-01-24 23:18:00,60.0,56.4,30.14,NNW,343,2.3,2.3,88,0.04,RA,,0.59,0.0,WeatherDisplay:10.37,2013-01-25 07:18:00,
2013-01-24 23:23:00,59.9,56.6,30.14,North,351,3.5,3.5,89,0.05,RA,,0.60,0.0,WeatherDisplay:10.37,2013-01-25 07:23:00,
2013-01-24 23:28:00,59.8,56.6,30.14,NNE,15,3.5,3.5,89,0.05,RA,,0.60,0.0,WeatherDisplay:10.37,2013-01-25 07:28:00,
2013-01-24 23:33:00,59.6,56.7,30.14,NNE,25,3.5,3.5,90,0.05,RA,,0.60,0.0,WeatherDisplay:10.37,2013-01-25 07:33:00,
2013-01-24 23:38:00,59.4,56.5,30.13,North,5,2.0,2.0,90,0.06,RA,,0.61,0.0,WeatherDisplay:10.37,2013-01-25 07:38:00,
2013-01-24 23:43:00,59.3,56.7,30.13,North,360,2.3,2.3,91,0.06,RA,,0.61,0.0,WeatherDisplay:10.37,2013-01-25 07:43:00,
2013-01-24 23:48:00,59.2,56.6,30.13,North,5,3.5,3.5,91,0.06,RA,,0.62,0.0,WeatherDisplay:10.37,2013-01-25 07:48:00,
2013-01-24 23:53:00,59.1,56.5,30.12,North,360,4.0,4.0,91,0.07,RA,,0.63,0.0,WeatherDisplay:10.37,2013-01-25 07:53:00,
2013-01-24 23:58:00,59.1,56.5,30.12,NNW,348,6.9,6.9,91,0.06,RA,,0.63,0.0,WeatherDisplay:10.37,2013-01-25 07:58:00,